Time;durP1;ratioP1;P1;durP2;ratioP2;P2;SDS_P1;SDS_P2;PMS_P1;PMS_P2;Temp;Humidity;BMP_temperature;BMP_pressure;BME280_temperature;BME280_humidity;BME280_pressure;Samples;Min_cycle;Max_cycle;Signal;HPM_P1;HPM_P2
2020/12/16 00:00:51;;;;;;;12.18;9.55;;;;;;;4.56;94.52;100209.75;5075446;28;20052;-73
2020/12/16 00:03:17;;;;;;;13.40;9.13;;;;;;;4.56;94.69;100216.81;5076409;28;20052;-73
2020/12/16 00:05:44;;;;;;;12.13;9.77;;;;;;;4.47;94.92;100210.94;5076328;28;20441;-73
2020/12/16 00:08:10;;;;;;;14.55;9.55;;;;;;;4.46;94.94;100209.22;5076454;28;20057;-73
2020/12/16 00:10:40;;;;;;;11.40;9.60;;;;;;;4.49;94.93;100214.38;5076617;28;20087;-73
2020/12/16 00:13:10;;;;;;;12.10;9.23;;;;;;;4.40;94.99;100204.16;5074661;28;20054;-73
2020/12/16 00:15:40;;;;;;;14.88;9.15;;;;;;;4.40;94.77;100214.72;5076097;28;20060;-73
2020/12/16 00:18:06;;;;;;;12.65;9.23;;;;;;;4.40;94.61;100216.53;5076053;28;20434;-73
2020/12/16 00:20:33;;;;;;;10.98;8.38;;;;;;;4.41;94.46;100218.25;5075856;28;20128;-73
2020/12/16 00:22:59;;;;;;;9.60;8.23;;;;;;;4.38;94.43;100221.84;5075814;28;20048;-72
2020/12/16 00:25:26;;;;;;;11.82;9.90;;;;;;;4.43;94.79;100217.28;5075001;28;20053;-73
2020/12/16 00:27:52;;;;;;;11.75;9.68;;;;;;;4.38;94.85;100224.50;5075779;28;20048;-72
2020/12/16 00:30:18;;;;;;;12.57;9.80;;;;;;;4.36;94.71;100234.22;5075714;28;20048;-73
2020/12/16 00:32:44;;;;;;;13.90;9.35;;;;;;;4.23;95.12;100217.09;5075621;28;20058;-73
2020/12/16 00:35:11;;;;;;;15.10;9.77;;;;;;;4.29;94.77;100225.66;5075459;28;20430;-73
2020/12/16 00:37:39;;;;;;;10.68;9.13;;;;;;;4.32;94.58;100232.63;5075793;28;20052;-73
2020/12/16 00:40:07;;;;;;;12.70;9.85;;;;;;;4.32;95.04;100228.19;5074706;28;20060;-73
2020/12/16 00:42:34;;;;;;;13.23;11.52;;;;;;;4.35;95.72;100230.75;5076101;28;20084;-73
2020/12/16 00:45:01;;;;;;;12.45;10.52;;;;;;;4.33;95.25;100223.78;5074768;28;20063;-73
2020/12/16 00:47:27;;;;;;;13.43;9.93;;;;;;;4.29;94.58;100214.22;5075644;28;20068;-73
2020/12/16 00:49:54;;;;;;;12.48;10.55;;;;;;;4.24;94.74;100213.53;5075239;28;20056;-73
2020/12/16 00:52:20;;;;;;;13.77;10.13;;;;;;;4.27;94.76;100216.94;5075443;28;20056;-72
2020/12/16 00:54:46;;;;;;;12.75;9.45;;;;;;;4.29;94.47;100222.13;5075447;28;20041;-73
2020/12/16 00:57:12;;;;;;;13.57;11.15;;;;;;;4.17;95.23;100205.81;5075541;28;20049;-73
2020/12/16 00:59:39;;;;;;;13.18;10.23;;;;;;;4.26;94.81;100227.53;5074171;28;20048;-73
2020/12/16 01:02:05;;;;;;;17.65;10.45;;;;;;;4.23;94.65;100238.22;5074982;28;20048;-73
2020/12/16 01:04:32;;;;;;;11.43;9.13;;;;;;;4.17;94.18;100231.34;5076661;28;20048;-73
2020/12/16 01:06:58;;;;;;;13.23;10.13;;;;;;;4.16;94.94;100233.16;5077474;28;20056;-73
2020/12/16 01:09:24;;;;;;;13.35;9.80;;;;;;;4.15;95.12;100235.81;5075642;28;20052;-73
2020/12/16 01:11:50;;;;;;;13.73;10.43;;;;;;;4.13;94.70;100242.94;5074911;28;20052;-75
2020/12/16 01:14:17;;;;;;;13.35;10.18;;;;;;;4.14;94.88;100245.53;5073937;28;20056;-74
2020/12/16 01:16:43;;;;;;;12.90;8.90;;;;;;;4.09;94.21;100250.13;5075263;28;20105;-73
2020/12/16 01:19:09;;;;;;;13.45;10.18;;;;;;;4.06;94.91;100231.72;5074960;28;20430;-74
2020/12/16 01:21:36;;;;;;;12.50;9.93;;;;;;;4.10;94.90;100256.25;5073939;28;20056;-74
2020/12/16 01:24:05;;;;;;;17.50;9.93;;;;;;;4.04;94.88;100250.25;5074868;28;20331;-73
2020/12/16 01:26:37;;;;;;;16.75;11.38;;;;;;;4.00;94.96;100253.03;5073994;28;20056;-73
2020/12/16 01:29:03;;;;;;;14.07;11.07;;;;;;;4.04;95.81;100259.97;5074029;28;20056;-74
2020/12/16 01:31:42;;;;;;;12.93;10.55;;;;;;;4.09;95.23;100250.13;5074813;28;20052;-74
2020/12/16 01:34:09;;;;;;;14.55;9.88;;;;;;;4.06;95.11;100247.56;5074721;28;20052;-74
2020/12/16 01:36:42;;;;;;;15.00;9.85;;;;;;;4.06;94.95;100255.47;5075110;28;20060;-73
2020/12/16 01:39:10;;;;;;;12.90;10.45;;;;;;;4.04;95.27;100247.59;5074972;28;20056;-74
2020/12/16 01:41:44;;;;;;;12.90;10.73;;;;;;;4.08;95.51;100251.00;5074978;28;20078;-74
2020/12/16 01:44:17;;;;;;;13.30;10.95;;;;;;;4.01;95.50;100239.78;5074765;28;20093;-73
2020/12/16 01:46:54;;;;;;;15.45;10.65;;;;;;;4.06;95.22;100258.13;5075407;28;20059;-73
2020/12/16 01:49:21;;;;;;;13.48;10.50;;;;;;;3.96;95.30;100256.69;5079073;28;20064;-73
2020/12/16 01:51:51;;;;;;;17.48;11.13;;;;;;;3.92;94.90;100250.66;5079121;28;20048;-73
2020/12/16 01:54:19;;;;;;;12.85;10.73;;;;;;;3.89;94.99;100261.31;5078978;28;20395;-73
2020/12/16 01:56:49;;;;;;;12.75;10.52;;;;;;;3.89;95.21;100262.19;5077836;28;20052;-73
2020/12/16 01:59:16;;;;;;;13.70;10.93;;;;;;;3.96;94.92;100262.84;5078783;28;20517;-74
2020/12/16 02:01:45;;;;;;;14.50;10.82;;;;;;;3.89;95.24;100259.53;5077781;28;20060;-73
2020/12/16 02:04:12;;;;;;;14.88;10.73;;;;;;;3.89;95.53;100246.34;5078602;28;20048;-74
2020/12/16 02:06:41;;;;;;;14.57;11.10;;;;;;;3.93;95.58;100247.94;5078547;28;20045;-73
2020/12/16 02:09:10;;;;;;;13.18;10.55;;;;;;;3.91;95.40;100249.78;5078480;28;20117;-73
2020/12/16 02:11:38;;;;;;;13.27;10.95;;;;;;;3.83;95.12;100241.25;5078586;28;20064;-73
2020/12/16 02:14:06;;;;;;;15.38;10.57;;;;;;;3.86;95.13;100250.84;5078363;28;20484;-73
2020/12/16 02:16:34;;;;;;;15.05;10.18;;;;;;;3.83;95.06;100246.53;5078377;28;20048;-73
2020/12/16 02:19:01;;;;;;;12.95;10.90;;;;;;;3.86;95.08;100250.84;5078398;28;20068;-72
2020/12/16 02:21:30;;;;;;;13.68;10.57;;;;;;;3.88;95.66;100255.16;5078227;28;20056;-73
2020/12/16 02:24:07;;;;;;;12.52;10.18;;;;;;;3.91;95.52;100257.69;5078193;28;20423;-74
2020/12/16 02:26:35;;;;;;;13.43;9.75;;;;;;;3.86;94.92;100245.56;5077339;28;20057;-73
2020/12/16 02:29:02;;;;;;;11.75;9.82;;;;;;;3.89;95.30;100256.03;5078173;28;20182;-73
2020/12/16 02:31:29;;;;;;;12.30;10.65;;;;;;;3.93;nan;100255.88;5077999;28;20102;-73
2020/12/16 02:33:56;;;;;;;16.50;9.45;;;;;;;3.90;95.01;100260.38;5076773;28;20051;-74
2020/12/16 02:36:22;;;;;;;14.95;9.77;;;;;;;3.90;95.21;100255.97;5077070;28;20076;-74
2020/12/16 02:38:49;;;;;;;14.45;10.50;;;;;;;3.86;95.36;100246.41;5078135;28;20048;-74
2020/12/16 02:41:15;;;;;;;16.75;10.50;;;;;;;3.93;95.69;100258.50;5076611;28;20055;-73
2020/12/16 02:43:41;;;;;;;13.38;10.70;;;;;;;3.82;96.37;100233.38;5077945;28;20144;-74
2020/12/16 02:46:07;;;;;;;14.13;10.20;;;;;;;3.93;95.77;100258.50;5078064;28;20106;-73
2020/12/16 02:48:33;;;;;;;13.07;9.27;;;;;;;3.93;95.21;100258.50;5077631;28;20044;-73
2020/12/16 02:50:59;;;;;;;11.82;9.80;;;;;;;3.85;95.03;100255.25;5077697;28;20052;-73
2020/12/16 02:53:25;;;;;;;13.32;9.30;;;;;;;3.84;95.13;100250.88;5077399;28;20106;-74
2020/12/16 02:55:52;;;;;;;10.57;8.95;;;;;;;3.80;95.13;100247.47;5077412;28;20056;-74
2020/12/16 02:58:18;;;;;;;12.25;9.50;;;;;;;3.74;94.75;100246.78;5075347;28;20106;-74
2020/12/16 03:00:44;;;;;;;12.45;9.18;;;;;;;3.77;94.49;100250.19;5077666;28;20102;-76
2020/12/16 03:03:10;;;;;;;11.13;8.75;;;;;;;3.78;94.94;100248.44;5077309;28;20094;-74
2020/12/16 03:05:36;;;;;;;17.45;9.50;;;;;;;3.86;96.14;100243.78;5077621;28;20048;-74
2020/12/16 03:08:06;;;;;;;10.93;8.98;;;;;;;3.87;95.40;100247.28;5077479;28;20052;-75
2020/12/16 03:10:32;;;;;;;10.68;8.20;;;;;;;3.83;94.89;100249.16;5077939;28;20346;-74
2020/12/16 03:12:58;;;;;;;12.40;8.27;;;;;;;3.87;95.33;100257.84;5076970;28;20064;-74
2020/12/16 03:15:24;;;;;;;12.07;8.40;;;;;;;3.76;95.50;100245.84;5077354;28;20055;-74
2020/12/16 03:17:50;;;;;;;12.02;7.90;;;;;;;3.89;95.41;100259.53;5076293;28;20063;-74
2020/12/16 03:20:17;;;;;;;11.40;7.95;;;;;;;3.81;94.28;100253.63;5076358;28;20445;-74
2020/12/16 03:22:43;;;;;;;9.23;7.75;;;;;;;3.73;94.63;100251.22;5077377;28;20052;-73
2020/12/16 03:25:09;;;;;;;12.05;8.48;;;;;;;3.76;95.66;100255.56;5077157;28;20052;-74
2020/12/16 03:27:35;;;;;;;8.90;7.15;;;;;;;3.63;94.71;100239.22;5076852;28;20078;-73
2020/12/16 03:30:01;;;;;;;13.20;8.07;;;;;;;3.54;94.92;100232.44;5076008;28;20048;-73
2020/12/16 03:32:27;;;;;;;11.15;7.95;;;;;;;3.63;95.35;100250.66;5075293;28;20101;-74
2020/12/16 03:34:53;;;;;;;9.35;7.60;;;;;;;3.58;95.00;100242.00;5076137;28;20338;-73
2020/12/16 03:37:20;;;;;;;9.13;7.40;;;;;;;3.53;94.45;100228.06;5076345;28;20445;-74
2020/12/16 03:39:46;;;;;;;10.00;7.57;;;;;;;3.46;94.62;100215.97;5076741;28;20056;-73
2020/12/16 03:42:12;;;;;;;9.63;7.80;;;;;;;3.50;95.19;100212.34;5076971;28;20052;-74
2020/12/16 03:44:38;;;;;;;9.20;7.35;;;;;;;3.50;95.72;100217.63;5076741;28;20048;-74
2020/12/16 03:47:04;;;;;;;11.27;7.65;;;;;;;3.51;95.77;100225.50;5076578;28;20048;-73
2020/12/16 03:49:31;;;;;;;9.00;7.45;;;;;;;3.49;96.21;100224.66;5076678;28;20060;-73
2020/12/16 03:51:57;;;;;;;8.38;7.03;;;;;;;3.46;95.51;100218.63;5075718;28;20114;-74
2020/12/16 03:54:38;;;;;;;;;;;;;;;3.51;95.08;100230.78;5075896;28;20048;-74
2020/12/16 03:57:04;;;;;;;9.55;6.82;;;;;;;3.57;95.44;100235.00;5075575;28;20272;-74
2020/12/16 03:59:31;;;;;;;9.07;6.57;;;;;;;3.52;95.08;100236.91;5075428;28;20056;-74
2020/12/16 04:01:57;;;;;;;8.73;6.63;;;;;;;3.50;95.30;100233.47;5076500;28;20057;-74
2020/12/16 04:04:23;;;;;;;7.07;6.03;;;;;;;3.50;94.91;100241.38;5076267;28;20404;-74
2020/12/16 04:06:53;;;;;;;10.55;6.28;;;;;;;3.50;95.12;100241.38;5076176;28;20430;-74
2020/12/16 04:09:19;;;;;;;7.78;6.35;;;;;;;3.47;94.75;100242.34;5075918;28;20110;-74
2020/12/16 04:11:45;;;;;;;7.60;5.53;;;;;;;3.37;94.86;100233.81;5075808;28;20052;-74
2020/12/16 04:14:12;;;;;;;9.32;6.60;;;;;;;3.44;94.49;100245.06;5076196;28;20048;-74
2020/12/16 04:16:38;;;;;;;7.75;5.35;;;;;;;3.36;95.05;100239.13;5075209;28;20056;-74
2020/12/16 04:19:04;;;;;;;8.60;5.47;;;;;;;3.44;94.76;100255.63;5074934;28;20063;-74
2020/12/16 04:21:31;;;;;;;6.65;5.32;;;;;;;3.40;94.65;100246.91;5075979;28;20087;-73
2020/12/16 04:23:57;;;;;;;9.00;5.57;;;;;;;3.45;94.70;100254.72;5075768;28;20060;-74
2020/12/16 04:26:28;;;;;;;8.77;5.03;;;;;;;3.43;94.70;100253.88;5075754;28;20055;-74
2020/12/16 04:28:54;;;;;;;;;;;;;;;3.34;94.74;100243.59;5075243;28;20160;-74
2020/12/16 04:31:20;;;;;;;5.30;4.43;;;;;;;3.28;94.48;100249.06;5075623;28;19921;-74
2020/12/16 04:33:46;;;;;;;6.03;4.80;;;;;;;3.26;94.94;100251.75;5074288;28;20044;-74
2020/12/16 04:36:12;;;;;;;5.07;4.03;;;;;;;3.23;94.45;100249.19;5075644;28;20052;-74
2020/12/16 04:38:38;;;;;;;6.50;4.63;;;;;;;3.20;94.88;100241.34;5075468;28;20110;-73
2020/12/16 04:41:09;;;;;;;6.13;4.88;;;;;;;3.17;94.81;100237.06;5075349;28;20056;-74
2020/12/16 04:43:43;;;;;;;9.32;4.95;;;;;;;3.20;94.90;100238.72;5075630;28;20055;-74
2020/12/16 04:46:14;;;;;;;7.63;4.35;;;;;;;3.10;94.57;100224.94;5075643;28;20063;-74
2020/12/16 04:48:44;;;;;;;;;;;;;;;3.20;94.48;100241.34;5076046;28;20056;-74
2020/12/16 04:51:11;;;;;;;7.82;5.00;;;;;;;3.13;95.14;100232.78;5075260;28;19924;-74
2020/12/16 04:53:37;;;;;;;11.13;5.15;;;;;;;3.23;96.14;100241.28;5074871;28;20491;-73
2020/12/16 04:56:03;;;;;;;8.45;5.88;;;;;;;3.30;96.54;100240.19;5074447;28;20052;-74
2020/12/16 04:58:30;;;;;;;6.00;5.38;;;;;;;3.29;95.69;100230.56;5075413;28;20056;-73
2020/12/16 05:00:57;;;;;;;8.20;5.32;;;;;;;3.27;95.52;100242.91;5074347;28;20430;-74
2020/12/16 05:03:24;;;;;;;7.05;4.95;;;;;;;3.09;95.05;100202.13;5075128;28;20053;-73
2020/12/16 05:05:50;;;;;;;7.93;4.55;;;;;;;3.19;94.71;100229.09;5075019;28;20130;-73
2020/12/16 05:08:17;;;;;;;6.50;4.75;;;;;;;3.17;95.38;100228.28;5075397;28;20492;-73
2020/12/16 05:10:47;;;;;;;5.28;4.03;;;;;;;2.96;95.13;100204.25;5075259;28;20060;-74
2020/12/16 05:13:18;;;;;;;5.20;4.38;;;;;;;3.12;95.12;100225.78;5074857;28;20762;-73
2020/12/16 05:15:49;;;;;;;6.10;4.22;;;;;;;3.14;95.37;100225.75;5075293;28;20068;-73
2020/12/16 05:18:18;;;;;;;11.38;5.05;;;;;;;3.10;94.65;100231.09;5075114;28;20053;-74
2020/12/16 05:20:52;;;;;;;9.95;4.65;;;;;;;3.04;94.90;100226.00;5074801;28;20063;-74
2020/12/16 05:23:29;;;;;;;5.00;4.35;;;;;;;3.05;94.98;100234.78;5074427;28;20056;-73
2020/12/16 05:26:15;;;;;;;5.30;4.25;;;;;;;3.04;95.20;100241.81;5073985;28;20082;-73
2020/12/16 05:28:49;;;;;;;5.97;4.25;;;;;;;2.97;95.35;100222.69;5075470;28;20052;-72
2020/12/16 05:31:15;;;;;;;8.40;3.67;;;;;;;3.09;95.63;100229.38;5075036;28;20430;-74
2020/12/16 05:33:47;;;;;;;6.10;3.92;;;;;;;3.16;95.79;100237.09;5074342;28;20044;-73
2020/12/16 05:36:30;;;;;;;7.03;4.15;;;;;;;3.16;96.20;100237.94;5075442;28;20110;-74
2020/12/16 05:38:57;;;;;;;6.28;4.75;;;;;;;3.19;96.00;100240.53;5075882;28;20044;-74
2020/12/16 05:41:31;;;;;;;7.30;4.55;;;;;;;3.10;96.07;100224.94;5075503;28;20052;-74
2020/12/16 05:44:18;;;;;;;9.45;4.22;;;;;;;3.25;96.47;100239.47;5075728;28;20049;-73
2020/12/16 05:46:45;;;;;;;10.23;5.07;;;;;;;3.24;96.45;100227.19;5075957;28;20048;-73
2020/12/16 05:49:40;;;;;;;7.85;4.40;;;;;;;3.30;96.38;100234.91;5074921;28;20656;-75
2020/12/16 05:52:06;;;;;;;5.07;3.75;;;;;;;3.30;96.33;100234.03;5073799;28;20056;-74
2020/12/16 05:54:37;;;;;;;7.30;4.60;;;;;;;3.07;95.93;100204.81;5074522;28;20131;-73
2020/12/16 05:57:09;;;;;;;5.93;4.15;;;;;;;3.34;96.00;100240.97;5075144;28;20362;-74
2020/12/16 05:59:36;;;;;;;6.90;4.30;;;;;;;3.28;96.01;100244.66;5073623;28;20098;-74
2020/12/16 06:02:06;;;;;;;10.63;4.43;;;;;;;3.25;95.90;100244.75;5074765;28;20057;-73
2020/12/16 06:04:36;;;;;;;4.40;3.05;;;;;;;3.33;96.61;100248.00;5074515;28;20095;-74
2020/12/16 06:07:04;;;;;;;11.55;4.80;;;;;;;3.36;96.64;100236.50;5073847;28;20057;-74
2020/12/16 06:09:32;;;;;;;6.65;4.38;;;;;;;3.47;96.71;100252.88;5074445;28;20060;-74
2020/12/16 06:12:06;;;;;;;8.20;5.07;;;;;;;3.55;97.06;100254.44;5073471;28;20053;-74
2020/12/16 06:14:35;;;;;;;7.95;4.00;;;;;;;3.50;96.87;100238.75;5074366;28;20719;-74
2020/12/16 06:17:11;;;;;;;5.90;4.45;;;;;;;3.62;96.64;100248.94;5074495;28;20049;-74
2020/12/16 06:19:44;;;;;;;5.72;3.40;;;;;;;3.57;96.30;100249.97;5074407;28;20327;-74
2020/12/16 06:22:11;;;;;;;4.93;4.18;;;;;;;3.66;96.30;100250.53;5074357;28;20049;-74
2020/12/16 06:24:42;;;;;;;6.05;4.80;;;;;;;3.68;96.64;100255.78;5073204;28;20464;-74
2020/12/16 06:27:11;;;;;;;7.38;4.20;;;;;;;3.65;95.82;100258.53;5074394;28;20048;-74
2020/12/16 06:29:48;;;;;;;6.55;4.10;;;;;;;3.55;95.87;100255.31;5073530;28;20056;-74
2020/12/16 06:32:47;;;;;;;6.43;5.30;;;;;;;3.61;96.33;100273.59;5074270;28;20049;-73
2020/12/16 06:35:19;;;;;;;6.05;4.57;;;;;;;3.59;95.88;100272.75;5076626;28;20049;-74
2020/12/16 06:37:46;;;;;;;6.25;4.28;;;;;;;3.58;95.70;100268.41;5078192;28;20060;-74
2020/12/16 06:40:41;;;;;;;6.63;4.63;;;;;;;3.56;95.43;100266.72;5078321;28;20052;-74
2020/12/16 06:43:31;;;;;;;7.80;5.40;;;;;;;3.56;96.13;100261.44;5077048;28;20048;-74
2020/12/16 06:45:58;;;;;;;6.07;4.85;;;;;;;3.53;96.09;100254.47;5078487;28;20048;-75
2020/12/16 06:48:37;;;;;;;5.95;4.18;;;;;;;3.57;96.35;100263.16;5078513;28;20052;-73
2020/12/16 06:51:36;;;;;;;6.63;4.50;;;;;;;3.50;95.85;100262.50;5077707;28;20052;-74
2020/12/16 06:54:07;;;;;;;5.13;4.57;;;;;;;3.38;95.75;100246.09;5077831;28;20393;-73
2020/12/16 06:56:40;;;;;;;9.85;4.65;;;;;;;3.47;96.09;100263.44;5077809;28;20125;-74
2020/12/16 06:59:06;;;;;;;8.15;5.30;;;;;;;3.48;96.06;100264.31;5077503;28;20048;-74
2020/12/16 07:01:33;;;;;;;7.63;5.80;;;;;;;3.41;96.25;100258.34;5077694;28;20059;-73
2020/12/16 07:04:00;;;;;;;8.40;5.22;;;;;;;3.20;95.77;100238.72;5077771;28;20045;-73
2020/12/16 07:06:29;;;;;;;8.07;5.25;;;;;;;3.43;96.07;100274.13;5077631;28;20048;-73
2020/12/16 07:09:14;;;;;;;6.55;5.10;;;;;;;3.39;95.47;100274.22;5077448;28;20048;-74
2020/12/16 07:11:44;;;;;;;8.13;5.10;;;;;;;3.39;96.26;100271.56;5077628;28;20041;-73
2020/12/16 07:14:12;;;;;;;7.22;5.82;;;;;;;3.44;96.61;100260.03;5077360;28;20147;-72
2020/12/16 07:16:39;;;;;;;7.90;6.20;;;;;;;3.44;96.73;100253.00;5076522;28;20053;-74
2020/12/16 07:19:05;;;;;;;8.10;5.18;;;;;;;3.46;96.18;100259.06;5077530;28;20095;-78
2020/12/16 07:21:32;;;;;;;12.18;5.95;;;;;;;3.47;95.78;100255.53;5076248;28;20056;-76
2020/12/16 07:24:03;;;;;;;7.85;5.40;;;;;;;3.42;95.59;100252.16;5077739;28;20040;-78
2020/12/16 07:26:46;;;;;;;11.38;7.38;;;;;;;3.49;96.48;100264.25;5077539;28;20056;-75
2020/12/16 07:29:32;;;;;;;9.27;6.70;;;;;;;3.43;96.58;100259.16;5075889;28;20047;-77
2020/12/16 07:32:11;;;;;;;8.30;6.07;;;;;;;3.48;96.36;100256.41;5076283;28;20056;-79
2020/12/16 07:34:51;;;;;;;7.13;5.72;;;;;;;3.45;96.16;100259.13;5077441;28;20041;-74
2020/12/16 07:37:20;;;;;;;9.48;6.00;;;;;;;3.49;96.40;100260.78;5076045;28;20074;-76
2020/12/16 07:39:55;;;;;;;9.10;7.05;;;;;;;3.55;96.74;100265.88;5075912;28;20052;-73
2020/12/16 07:42:26;;;;;;;9.70;7.20;;;;;;;3.56;96.83;100264.94;5076436;28;20059;-76
2020/12/16 07:44:54;;;;;;;8.68;7.38;;;;;;;3.42;96.81;100240.75;5076165;28;20334;-73
2020/12/16 07:47:20;;;;;;;12.32;7.90;;;;;;;3.62;96.75;100259.47;5077430;28;20052;-73
2020/12/16 07:49:48;;;;;;;12.75;8.20;;;;;;;3.68;97.19;100263.69;5076439;28;20074;-73
2020/12/16 07:52:14;;;;;;;14.63;9.52;;;;;;;3.80;97.87;100252.75;5074808;28;20056;-76
2020/12/16 07:54:40;;;;;;;11.38;8.45;;;;;;;3.86;97.64;100259.63;5077635;28;20064;-75
2020/12/16 07:57:07;;;;;;;11.85;9.02;;;;;;;3.92;97.64;100246.22;5075609;28;20052;-76
2020/12/16 07:59:35;;;;;;;10.07;7.68;;;;;;;3.89;97.17;100256.03;5077206;28;20055;-75
2020/12/16 08:02:11;;;;;;;11.85;7.97;;;;;;;3.84;96.86;100245.59;5076648;28;20117;-75
2020/12/16 08:04:39;;;;;;;15.32;9.30;;;;;;;3.94;97.43;100254.09;5077311;28;20048;-73
2020/12/16 08:07:20;;;;;;;15.30;8.98;;;;;;;3.94;97.20;100244.38;5076949;28;20388;-73
2020/12/16 08:09:58;;;;;;;14.40;8.60;;;;;;;3.97;96.98;100253.16;5075059;28;20059;-75
2020/12/16 08:12:30;;;;;;;12.82;8.48;;;;;;;3.96;96.67;100246.13;5076417;28;20061;-75
2020/12/16 08:15:09;;;;;;;10.85;7.70;;;;;;;3.98;96.45;100250.44;5076500;28;20068;-77
2020/12/16 08:17:41;;;;;;;10.77;8.65;;;;;;;3.98;96.56;100249.59;5056524;28;20053;-76
2020/12/16 08:20:16;;;;;;;11.25;8.00;;;;;;;3.98;96.60;100244.31;5056797;28;20056;-76
2020/12/16 08:22:44;;;;;;;14.23;7.97;;;;;;;4.03;96.45;100248.50;5071177;28;20055;-76
2020/12/16 08:25:11;;;;;;;11.63;7.90;;;;;;;4.10;96.24;100254.47;5075663;28;20044;-74
2020/12/16 08:27:39;;;;;;;13.48;8.70;;;;;;;4.14;96.61;100250.81;5074830;28;20385;-76
2020/12/16 08:30:06;;;;;;;11.27;8.57;;;;;;;4.15;96.17;100243.75;5058467;28;20331;-76
2020/12/16 08:32:49;;;;;;;14.77;8.65;;;;;;;4.32;95.98;100256.41;5058800;28;20111;-74
2020/12/16 08:35:21;;;;;;;12.82;8.05;;;;;;;4.37;96.30;100248.31;5076073;28;20396;-75
2020/12/16 08:37:52;;;;;;;10.90;8.18;;;;;;;4.41;96.66;100248.16;5075790;28;20377;-76
2020/12/16 08:40:19;;;;;;;12.43;8.15;;;;;;;4.38;96.31;100247.41;5076064;28;20434;-77
2020/12/16 08:42:45;;;;;;;10.82;7.78;;;;;;;4.44;96.60;100242.78;5075903;28;20056;-76
2020/12/16 08:45:11;;;;;;;12.00;8.63;;;;;;;4.50;96.58;100246.97;5075261;28;20102;-76
2020/12/16 08:47:40;;;;;;;12.75;9.00;;;;;;;4.60;96.78;100242.25;5075791;28;20044;-75
2020/12/16 08:50:16;;;;;;;11.82;8.55;;;;;;;4.60;96.50;100234.31;5076040;28;20041;-77
2020/12/16 08:52:45;;;;;;;11.95;9.20;;;;;;;4.65;96.48;100247.38;5073480;28;20053;-77
2020/12/16 08:55:21;;;;;;;11.20;8.45;;;;;;;4.55;96.38;100208.03;5075977;28;20075;-76
2020/12/16 08:58:00;;;;;;;12.77;8.70;;;;;;;4.69;96.02;100247.19;5075464;28;20327;-77
2020/12/16 09:00:33;;;;;;;15.52;9.65;;;;;;;4.70;96.46;100242.78;5075377;28;20048;-76
2020/12/16 09:03:12;;;;;;;15.10;9.70;;;;;;;4.70;96.41;100243.66;5076035;28;20053;-77
2020/12/16 09:05:40;;;;;;;15.25;9.80;;;;;;;4.67;96.89;100234.94;5075589;28;20044;-76
2020/12/16 09:08:10;;;;;;;13.38;9.15;;;;;;;4.74;96.60;100247.91;5075879;28;20445;-77
2020/12/16 09:10:44;;;;;;;14.13;10.27;;;;;;;4.75;97.02;100238.19;5075850;28;20342;-75
2020/12/16 09:13:18;;;;;;;14.25;10.57;;;;;;;4.75;97.09;100240.84;5074860;28;20168;-77
2020/12/16 09:15:51;;;;;;;15.52;10.20;;;;;;;4.78;96.84;100242.53;5075412;28;20087;-77
2020/12/16 09:18:29;;;;;;;14.68;10.90;;;;;;;4.65;97.13;100216.50;5072990;28;20131;-76
2020/12/16 09:20:56;;;;;;;12.55;9.82;;;;;;;4.85;97.37;100246.69;5075970;28;20074;-75
2020/12/16 09:23:24;;;;;;;11.43;9.40;;;;;;;4.89;97.30;100237.69;5075434;28;20044;-77
2020/12/16 09:25:55;;;;;;;10.85;8.90;;;;;;;4.96;97.42;100233.06;5078335;28;20045;-76
2020/12/16 09:28:35;;;;;;;12.65;9.27;;;;;;;5.37;97.04;100243.88;5075623;28;20044;-74
2020/12/16 09:31:19;;;;;;;14.00;8.90;;;;;;;5.43;97.10;100241.00;5063283;28;20064;-76
2020/12/16 09:33:56;;;;;;;12.63;9.57;;;;;;;5.54;97.08;100234.41;5075178;28;20056;-76
2020/12/16 09:36:29;;;;;;;12.85;9.60;;;;;;;5.66;97.06;100233.09;5075023;28;20127;-76
2020/12/16 09:39:01;;;;;;;11.25;8.68;;;;;;;5.74;97.09;100231.00;5075509;28;20047;-78
2020/12/16 09:41:27;;;;;;;13.95;9.75;;;;;;;5.83;96.60;100230.63;5073655;28;20070;-75
2020/12/16 09:43:54;;;;;;;11.25;9.73;;;;;;;5.91;96.88;100227.66;5075888;28;20078;-75
2020/12/16 09:46:23;;;;;;;13.23;9.50;;;;;;;5.98;96.60;100222.97;5076332;28;20045;-77
2020/12/16 09:48:57;;;;;;;12.48;9.93;;;;;;;6.05;96.92;100226.28;5074487;28;20063;-76
2020/12/16 09:51:24;;;;;;;13.68;9.38;;;;;;;6.15;96.70;100224.94;5075487;28;20040;-75
2020/12/16 09:53:52;;;;;;;13.57;9.27;;;;;;;6.11;96.37;100210.97;5078124;28;20150;-77
2020/12/16 09:56:24;;;;;;;12.23;9.15;;;;;;;6.08;96.28;100196.97;5064125;28;20041;-79
2020/12/16 09:58:50;;;;;;;14.18;9.50;;;;;;;6.17;96.21;100195.75;5082791;28;20159;-79
2020/12/16 10:01:18;;;;;;;17.45;9.63;;;;;;;6.42;95.55;100222.06;5082709;28;20320;-79
2020/12/16 10:03:47;;;;;;;13.13;8.98;;;;;;;6.70;93.95;100243.88;5083033;28;20078;-79
2020/12/16 10:06:14;;;;;;;13.40;9.13;;;;;;;6.74;94.03;100248.13;5081503;28;20071;-79
2020/12/16 10:08:41;;;;;;;13.60;9.60;;;;;;;6.79;93.47;100244.34;5083484;28;20048;-79
2020/12/16 10:11:11;;;;;;;13.32;9.93;;;;;;;6.82;93.74;100240.72;5083339;28;20055;-79
2020/12/16 10:13:39;;;;;;;14.35;11.00;;;;;;;6.82;94.30;100235.41;5084464;28;20052;-81
2020/12/16 10:16:08;;;;;;;13.73;10.73;;;;;;;7.00;95.03;100236.38;5084450;28;20048;-78
2020/12/16 10:18:34;;;;;;;13.00;9.73;;;;;;;7.05;94.57;100233.50;5078530;28;20098;-76
2020/12/16 10:21:00;;;;;;;12.82;9.55;;;;;;;7.23;94.01;100244.22;5079499;28;20078;-74
2020/12/16 10:23:26;;;;;;;11.77;9.10;;;;;;;7.26;93.84;100233.44;5079797;28;20377;-75
2020/12/16 10:25:53;;;;;;;13.95;9.45;;;;;;;7.23;93.89;100223.84;5081566;28;20044;-75
2020/12/16 10:28:30;;;;;;;15.10;9.23;;;;;;;7.40;94.09;100231.00;5078706;28;20090;-76
2020/12/16 10:30:57;;;;;;;13.80;10.32;;;;;;;7.47;94.58;100234.25;5078917;28;20053;-76
2020/12/16 10:33:24;;;;;;;18.13;10.02;;;;;;;7.37;93.67;100204.63;5056461;28;20045;-76
2020/12/16 10:35:50;;;;;;;10.73;8.70;;;;;;;7.63;93.05;100214.94;5078274;28;20044;-75
2020/12/16 10:38:16;;;;;;;13.25;9.50;;;;;;;7.77;93.39;100222.22;5077764;28;20083;-76
2020/12/16 10:40:42;;;;;;;19.85;9.65;;;;;;;7.83;93.30;100230.78;5074169;28;20342;-75
2020/12/16 10:43:09;;;;;;;14.52;9.77;;;;;;;7.82;93.38;100222.88;5076980;28;20071;-77
2020/12/16 10:45:35;;;;;;;13.30;9.32;;;;;;;7.91;93.37;100225.09;5078187;28;20058;-74
2020/12/16 10:48:01;;;;;;;13.57;10.43;;;;;;;7.81;94.04;100208.75;5077967;28;20122;-74
2020/12/16 10:50:30;;;;;;;13.32;10.55;;;;;;;7.91;94.34;100209.16;5076474;28;20045;-74
2020/12/16 10:53:00;;;;;;;13.65;10.07;;;;;;;8.04;94.76;100211.16;5077756;28;20052;-74
2020/12/16 10:55:27;;;;;;;19.75;11.45;;;;;;;8.17;94.62;100200.81;5074599;28;20066;-73
2020/12/16 10:57:53;;;;;;;17.23;10.68;;;;;;;8.31;94.38;100192.97;5076650;28;20049;-74
2020/12/16 11:00:20;;;;;;;8.43;6.68;;;;;;;8.56;93.71;100189.09;5076232;28;20040;-74
2020/12/16 11:02:49;;;;;;;3.63;3.30;;;;;;;8.74;92.25;100176.63;5076794;28;20056;-73
2020/12/16 11:05:15;;;;;;;12.05;6.88;;;;;;;8.80;92.68;100170.97;5076282;28;20457;-74
2020/12/16 11:07:42;;;;;;;4.07;3.33;;;;;;;8.90;92.46;100165.16;5076497;28;20052;-73
2020/12/16 11:10:08;;;;;;;1.92;1.33;;;;;;;8.87;91.85;100138.72;5077385;28;20048;-74
2020/12/16 11:12:34;;;;;;;2.05;1.30;;;;;;;8.96;92.19;100143.53;5075989;28;20061;-75
2020/12/16 11:15:01;;;;;;;1.20;1.10;;;;;;;8.92;92.45;100136.63;5082378;28;20060;-74
2020/12/16 11:17:30;;;;;;;3.08;1.00;;;;;;;8.87;92.51;100133.38;5077042;28;20052;-73
2020/12/16 11:19:56;;;;;;;1.30;1.17;;;;;;;8.83;93.02;100144.19;5075158;28;20135;-72
2020/12/16 11:22:22;;;;;;;1.42;0.98;;;;;;;8.98;91.57;100136.31;5076883;28;20048;-72
2020/12/16 11:24:48;;;;;;;1.08;0.98;;;;;;;9.12;90.80;100140.00;5076124;28;20049;-73
2020/12/16 11:27:15;;;;;;;1.45;0.80;;;;;;;9.22;90.43;100143.91;5076600;28;20048;-72
2020/12/16 11:29:48;;;;;;;1.27;0.88;;;;;;;9.33;89.62;100146.78;5076624;28;20048;-73
2020/12/16 11:32:17;;;;;;;1.67;1.05;;;;;;;9.41;88.57;100148.19;5077130;28;20088;-72
2020/12/16 11:34:43;;;;;;;1.15;0.57;;;;;;;9.50;87.79;100147.66;5077105;28;20040;-74
2020/12/16 11:37:09;;;;;;;0.63;0.63;;;;;;;9.46;88.19;100132.78;5076674;28;20040;-72